Etusivu
METAR-TAF:

METAR-TAF

Lentoasemat :

Rarotonga, Cookinsaaret

Rarotongan kansainvälinen lentoasema

Leveyspiiri: 21-12S, Pituuspiiri: 159-49W, korkeus merenpinnasta: 7 m

Tämänhetkinen sää

Tämä raportti tehtiin 38 minuuttia sitten, kello 15.00 UTC
Tuuli 4 kn etelästä/lounaasta
Lämpötila 19°C
Kosteus 83%
Ilmanpaine 1013 hPa
Näkyvyys 10 km tai enemmän
Hajanaisia pilviä 2000 ft:n korkeudessa

METAR: NCRG 211500Z 20004KT 9999 SCT020 19/16 Q1013 RMK DEW ON GRASS

Aika: 05:38 (15:38 UTC)

Sääennuste

Tämä raportti tehtiin 4 tuntia ja 31 minuuttia sitten, kello 11.07 UTC
Ennuste voimassa 21. päivästä klo 12 UTC - 22. päivään klo 12 UTC
Tuuli 8 kn etelästä
Näkyvyys 10 km tai enemmän
Hajanaisia pilviä 2000 ft:n korkeudessa
Hajanaisia pilviä 5000 ft:n korkeudessa

TAF: NCRG 211107Z 2112/2212 18008KT 9999 SCT020 SCT050

Säähavainnot ja -ennusteet yli 4000 lentoasemalta (METAR- ja TAF-raportit).

Käytössä olevat sääasemat on merkitty karttaan keltaisilla ja punaisilla pisteillä.

Aseta hiiri pisteen päälle nähdäksesi sääaseman nimen.

Klikkaa sitten nähdäksesi säähavainnot ja -ennusteet.

Kartan vaihtaminen: klikkaa mustalla rastilla varustettuja vihreitä pisteitä, niin voit zoomata sisään; viivalla varustettua vihreää pistettä, niin voit zoomata ulos tai vihreitä nuolia, niin pääset viereisille kartoille.


METAR-TAF: